Time;durP1;ratioP1;P1;durP2;ratioP2;P2;SDS_P1;SDS_P2;PMS_P1;PMS_P2;Temp;Humidity;BMP_temperature;BMP_pressure;BME280_temperature;BME280_humidity;BME280_pressure;Samples;Min_cycle;Max_cycle;Signal;HPM_P1;HPM_P2
2022/09/10 00:00:04;;;;;;;10.73;3.72;;;;;;;14.43;100.00;100839.22;4950557;28;20060;-67
2022/09/10 00:02:31;;;;;;;7.65;3.45;;;;;;;14.45;100.00;100832.59;4950775;29;20038;-67
2022/09/10 00:04:58;;;;;;;10.18;4.22;;;;;;;14.45;100.00;100840.66;4951129;29;20034;-67
2022/09/10 00:07:23;;;;;;;7.80;3.30;;;;;;;14.45;100.00;100840.66;4951085;29;20031;-67
2022/09/10 00:09:49;;;;;;;6.30;3.13;;;;;;;14.45;100.00;100837.97;4950806;29;20060;-67
2022/09/10 00:12:14;;;;;;;8.77;4.07;;;;;;;14.46;100.00;100836.09;4950825;29;20062;-67
2022/09/10 00:14:39;;;;;;;9.35;4.22;;;;;;;14.44;100.00;100832.84;4950782;29;20126;-67
2022/09/10 00:17:05;;;;;;;14.10;4.28;;;;;;;14.45;100.00;100831.78;4950991;29;20521;-64
2022/09/10 00:19:31;;;;;;;13.88;4.00;;;;;;;14.45;100.00;100829.91;4950919;29;20848;-63
2022/09/10 00:21:56;;;;;;;9.45;4.18;;;;;;;14.44;100.00;100830.97;4951071;29;20078;-63
2022/09/10 00:24:22;;;;;;;9.13;4.13;;;;;;;14.45;100.00;100823.72;4950946;29;20039;-63
2022/09/10 00:26:49;;;;;;;10.93;4.72;;;;;;;14.44;100.00;100822.09;4950965;29;20031;-63
2022/09/10 00:29:16;;;;;;;6.22;3.50;;;;;;;14.44;100.00;100820.22;4950793;28;20038;-63
2022/09/10 00:31:42;;;;;;;11.95;6.25;;;;;;;14.42;100.00;100819.63;4950887;29;20371;-63
2022/09/10 00:34:10;;;;;;;9.68;4.13;;;;;;;14.46;100.00;100823.53;4950960;29;20031;-63
2022/09/10 00:36:41;;;;;;;9.02;3.95;;;;;;;14.46;100.00;100818.16;4950720;29;20502;-63
2022/09/10 00:39:09;;;;;;;9.25;4.45;;;;;;;14.43;100.00;100818.56;4932536;29;20047;-63
2022/09/10 00:41:36;;;;;;;9.48;3.33;;;;;;;14.42;100.00;100822.31;4950864;29;20415;-63
2022/09/10 00:44:26;;;;;;;10.18;4.22;;;;;;;14.37;100.00;100813.28;4950911;29;20106;-64
2022/09/10 00:46:53;;;;;;;10.18;3.97;;;;;;;14.43;100.00;100823.13;4950411;29;20039;-64
2022/09/10 00:49:29;;;;;;;7.68;4.05;;;;;;;14.43;100.00;100817.75;4950482;29;20035;-64
2022/09/10 00:51:54;;;;;;;10.75;3.35;;;;;;;14.44;100.00;100822.91;4950724;28;20045;-65
2022/09/10 00:54:24;;;;;;;9.45;4.32;;;;;;;14.44;100.00;100822.09;4950574;29;20886;-64
2022/09/10 00:56:52;;;;;;;10.35;4.70;;;;;;;14.43;100.00;100817.75;4950319;29;20628;-64
2022/09/10 00:59:24;;;;;;;18.05;5.68;;;;;;;14.44;100.00;100822.09;4949842;29;20081;-65
2022/09/10 01:01:50;;;;;;;;;;;;;;;14.46;100.00;100828.88;4950696;29;20031;-64
2022/09/10 01:04:15;;;;;;;8.55;4.40;;;;;;;14.45;100.00;100823.72;4950535;29;19910;-64
2022/09/10 01:06:44;;;;;;;11.02;4.75;;;;;;;14.40;100.00;100812.84;4950352;29;20027;-65
2022/09/10 01:09:10;;;;;;;11.05;5.03;;;;;;;14.45;100.00;100829.91;4950335;29;20038;-64
2022/09/10 01:11:41;;;;;;;11.82;5.03;;;;;;;14.48;100.00;100834.00;4952711;28;20047;-64
2022/09/10 01:14:38;;;;;;;8.57;5.00;;;;;;;14.48;100.00;100828.66;4954222;29;20031;-64
2022/09/10 01:17:39;;;;;;;14.50;7.20;;;;;;;14.48;100.00;100834.00;4911190;29;20039;-65
2022/09/10 01:20:39;;;;;;;13.65;5.63;;;;;;;14.47;100.00;100832.38;4950012;29;20511;-64
2022/09/10 01:23:42;;;;;;;11.75;5.72;;;;;;;14.46;100.00;100836.94;4954159;29;20035;-64
2022/09/10 01:26:22;;;;;;;8.02;4.65;;;;;;;14.48;100.00;100836.69;4953927;28;20487;-64
2022/09/10 01:28:55;;;;;;;10.88;5.90;;;;;;;14.48;100.00;100842.06;4954016;29;20097;-65
2022/09/10 01:31:39;;;;;;;13.60;6.15;;;;;;;14.47;100.00;100837.75;4935389;29;20040;-64
2022/09/10 01:34:15;;;;;;;13.02;6.28;;;;;;;14.47;100.00;100835.06;4953948;29;20482;-64
2022/09/10 01:36:44;;;;;;;16.42;6.47;;;;;;;14.45;100.00;100829.91;4953773;29;20031;-64
2022/09/10 01:39:10;;;;;;;14.88;5.43;;;;;;;14.45;100.00;100835.28;4953864;28;20071;-64
2022/09/10 01:41:36;;;;;;;13.90;6.30;;;;;;;14.46;100.00;100836.94;4953675;29;20563;-64
2022/09/10 01:44:39;;;;;;;11.95;5.88;;;;;;;14.47;100.00;100838.56;4953522;29;20102;-64
2022/09/10 01:47:14;;;;;;;11.27;5.82;;;;;;;14.47;100.00;100841.25;4953211;29;20534;-64
2022/09/10 01:50:18;;;;;;;15.05;6.13;;;;;;;14.48;100.00;100840.19;4953242;29;20027;-64
2022/09/10 01:53:03;;;;;;;14.98;5.40;;;;;;;14.48;100.00;100834.81;4875562;29;20052;-64
2022/09/10 01:56:02;;;;;;;13.05;6.50;;;;;;;14.48;100.00;100832.13;4902252;29;20043;-64
2022/09/10 01:58:40;;;;;;;10.43;5.43;;;;;;;14.49;100.00;100833.00;4912184;29;20052;-65
2022/09/10 02:01:13;;;;;;;11.80;6.07;;;;;;;14.47;100.00;100825.16;4946703;29;20388;-64
2022/09/10 02:03:42;;;;;;;18.45;6.22;;;;;;;14.46;100.00;100831.56;4917659;29;20439;-64
2022/09/10 02:06:12;;;;;;;13.98;6.03;;;;;;;14.47;100.00;100824.34;4934945;29;20507;-64
2022/09/10 02:08:40;;;;;;;17.23;6.15;;;;;;;14.46;100.00;100828.88;4934307;29;20122;-64
2022/09/10 02:11:10;;;;;;;14.07;6.13;;;;;;;14.48;100.00;100821.41;4934566;29;20411;-64
2022/09/10 02:13:36;;;;;;;10.30;4.95;;;;;;;14.48;100.00;100828.66;4934692;29;20031;-64
2022/09/10 02:16:07;;;;;;;16.67;6.50;;;;;;;14.42;100.00;100816.13;4934763;29;20480;-65
2022/09/10 02:18:33;;;;;;;10.73;5.55;;;;;;;14.50;100.00;100823.88;4934698;29;20077;-64
2022/09/10 02:21:02;;;;;;;16.00;6.43;;;;;;;14.48;100.00;100816.03;4934626;29;20114;-64
2022/09/10 02:23:33;;;;;;;14.38;7.03;;;;;;;14.49;100.00;100819.56;4933976;29;20459;-65
2022/09/10 02:25:59;;;;;;;11.48;5.88;;;;;;;14.50;100.00;100823.88;4934620;29;20035;-64
2022/09/10 02:28:24;;;;;;;14.90;6.65;;;;;;;14.53;100.00;100817.28;4934578;29;20075;-65
2022/09/10 02:30:50;;;;;;;16.85;7.43;;;;;;;14.52;100.00;100813.75;4934327;29;20483;-64
2022/09/10 02:33:17;;;;;;;13.10;6.00;;;;;;;14.54;100.00;100816.22;4934429;28;20027;-64
2022/09/10 02:35:43;;;;;;;11.27;6.10;;;;;;;14.55;100.00;100815.19;4952460;29;20114;-64
2022/09/10 02:38:08;;;;;;;27.45;8.77;;;;;;;14.56;100.00;100808.78;4952252;29;20137;-64
2022/09/10 02:40:34;;;;;;;14.90;6.72;;;;;;;14.56;100.00;100808.78;4952585;29;20434;-65
2022/09/10 02:42:59;;;;;;;12.70;6.65;;;;;;;14.58;100.00;100806.69;4952129;29;20030;-64
2022/09/10 02:45:25;;;;;;;13.90;6.07;;;;;;;14.57;100.00;100802.38;4952285;29;20102;-64
2022/09/10 02:47:50;;;;;;;16.55;7.32;;;;;;;14.57;100.00;100805.06;4952424;29;20039;-64
2022/09/10 02:50:16;;;;;;;15.30;7.20;;;;;;;14.58;100.00;100812.06;4952343;29;20062;-65
2022/09/10 02:52:44;;;;;;;11.48;6.18;;;;;;;14.58;100.00;100804.81;4952151;28;20031;-64
2022/09/10 02:55:11;;;;;;;14.63;6.75;;;;;;;14.58;100.00;100809.38;4952338;29;20031;-64
2022/09/10 02:57:38;;;;;;;16.88;7.32;;;;;;;14.59;100.00;100813.69;4952552;28;20043;-64
2022/09/10 03:00:04;;;;;;;14.43;7.55;;;;;;;14.60;100.00;100808.09;4952449;29;20039;-64
2022/09/10 03:02:30;;;;;;;15.57;6.70;;;;;;;14.59;100.00;100808.31;4951894;29;20035;-65
2022/09/10 03:04:55;;;;;;;17.05;8.27;;;;;;;14.61;100.00;100820.47;4951349;29;20082;-64
2022/09/10 03:07:20;;;;;;;12.90;7.05;;;;;;;14.61;100.00;100814.28;4952044;29;20043;-64
2022/09/10 03:09:46;;;;;;;12.00;6.03;;;;;;;14.62;100.00;100813.25;4952280;28;20451;-64
2022/09/10 03:12:12;;;;;;;18.58;7.57;;;;;;;14.62;100.00;100815.94;4951740;28;20060;-65
2022/09/10 03:14:37;;;;;;;12.55;6.40;;;;;;;14.61;100.00;100807.06;4951945;29;20027;-64
2022/09/10 03:17:04;;;;;;;13.82;7.40;;;;;;;14.61;100.00;100809.75;4951963;29;20364;-64
2022/09/10 03:19:30;;;;;;;14.63;6.47;;;;;;;14.62;100.00;100813.25;4951981;29;20054;-64
2022/09/10 03:21:56;;;;;;;12.63;7.35;;;;;;;14.61;100.00;100809.75;4951870;29;20570;-65
2022/09/10 03:24:21;;;;;;;12.90;7.60;;;;;;;14.64;100.00;100820.03;4951720;29;20207;-64
2022/09/10 03:26:46;;;;;;;13.10;7.28;;;;;;;14.66;100.00;100817.13;4951948;29;20033;-64
2022/09/10 03:29:12;;;;;;;17.05;9.25;;;;;;;14.67;100.00;100821.44;4951719;29;20038;-64
2022/09/10 03:31:38;;;;;;;15.07;8.48;;;;;;;14.68;100.00;100817.72;4951700;29;20042;-64
2022/09/10 03:34:03;;;;;;;16.88;7.75;;;;;;;14.69;100.00;100814.00;4950580;28;20491;-64
2022/09/10 03:36:30;;;;;;;16.73;7.03;;;;;;;14.67;100.00;100819.59;4951374;28;20058;-64
2022/09/10 03:38:58;;;;;;;12.35;6.70;;;;;;;14.66;100.00;100815.25;4951384;29;20106;-64
2022/09/10 03:41:27;;;;;;;13.93;7.85;;;;;;;14.68;100.00;100818.53;4951140;29;20030;-64
2022/09/10 03:43:53;;;;;;;17.15;8.80;;;;;;;14.66;100.00;100809.06;4951551;29;20030;-64
2022/09/10 03:46:19;;;;;;;15.27;6.97;;;;;;;14.65;100.00;100808.25;4951440;29;20077;-64
2022/09/10 03:48:45;;;;;;;14.40;7.18;;;;;;;14.65;100.00;100808.25;4951372;29;20063;-64
2022/09/10 03:51:10;;;;;;;16.98;8.27;;;;;;;14.62;100.00;100803.34;4932953;29;20036;-64
2022/09/10 03:53:36;;;;;;;13.82;6.47;;;;;;;14.61;100.00;100804.38;4932986;29;20031;-64
2022/09/10 03:56:02;;;;;;;14.07;6.60;;;;;;;14.60;100.00;100808.09;4951339;29;20039;-64
2022/09/10 03:58:27;;;;;;;19.38;7.53;;;;;;;14.62;100.00;100808.72;4951210;28;20035;-64
2022/09/10 04:00:52;;;;;;;14.93;8.63;;;;;;;14.62;100.00;100803.34;4951236;29;20086;-64
2022/09/10 04:03:19;;;;;;;15.10;8.10;;;;;;;14.61;100.00;100796.31;4951446;28;20070;-64
2022/09/10 04:05:45;;;;;;;16.88;8.98;;;;;;;14.62;100.00;100791.78;4950624;29;20082;-64
2022/09/10 04:08:11;;;;;;;16.55;8.93;;;;;;;14.62;100.00;100789.91;4950060;28;20071;-64
2022/09/10 04:10:38;;;;;;;14.25;7.40;;;;;;;14.61;100.00;100790.94;4951151;29;20066;-64
2022/09/10 04:13:03;;;;;;;18.20;8.40;;;;;;;14.62;100.00;100794.47;4950885;29;20131;-64
2022/09/10 04:15:29;;;;;;;17.13;8.45;;;;;;;14.61;100.00;100793.63;4951031;29;20117;-64
2022/09/10 04:17:54;;;;;;;16.75;8.18;;;;;;;14.60;100.00;100789.31;4950936;29;20573;-64
2022/09/10 04:20:21;;;;;;;16.80;9.60;;;;;;;14.60;100.00;100791.19;4950977;29;20031;-64
2022/09/10 04:22:47;;;;;;;14.63;9.20;;;;;;;14.60;100.00;100793.88;4950924;29;20030;-64
2022/09/10 04:25:14;;;;;;;14.27;7.78;;;;;;;14.59;100.00;100787.69;4950895;28;20509;-64
2022/09/10 04:27:40;;;;;;;16.35;8.48;;;;;;;14.59;100.00;100792.22;4950929;29;20105;-64
2022/09/10 04:30:07;;;;;;;19.52;8.50;;;;;;;14.58;100.00;100798.63;4950641;29;20032;-64
2022/09/10 04:32:32;;;;;;;16.60;9.63;;;;;;;14.59;100.00;100792.22;4950571;29;20035;-64
2022/09/10 04:34:58;;;;;;;23.52;9.50;;;;;;;14.53;100.00;100777.84;4950737;28;20113;-64
2022/09/10 04:37:23;;;;;;;17.58;8.82;;;;;;;14.58;100.00;100794.09;4950782;28;20027;-64
2022/09/10 04:39:49;;;;;;;16.42;9.13;;;;;;;14.60;100.00;100791.19;4950824;29;20035;-64
2022/09/10 04:42:19;;;;;;;18.88;8.95;;;;;;;14.60;100.00;100797.38;4950628;29;20042;-64
2022/09/10 04:44:45;;;;;;;22.40;8.40;;;;;;;14.62;100.00;100789.91;4950645;28;20039;-64
2022/09/10 04:47:11;;;;;;;18.73;9.35;;;;;;;14.63;100.00;100793.41;4943531;29;20050;-64
2022/09/10 04:49:36;;;;;;;15.80;8.45;;;;;;;14.65;100.00;100800.19;4936263;29;20035;-65
2022/09/10 04:52:02;;;;;;;17.35;8.10;;;;;;;14.65;100.00;100794.84;4935772;29;20379;-64
2022/09/10 04:54:27;;;;;;;18.00;9.48;;;;;;;14.66;100.00;100796.47;4936243;29;20415;-64
2022/09/10 04:56:53;;;;;;;17.23;8.13;;;;;;;14.65;100.00;100799.38;4954082;28;20035;-64
2022/09/10 04:59:19;;;;;;;17.55;7.78;;;;;;;14.67;100.00;100805.34;4954477;29;20695;-64
2022/09/10 05:01:44;;;;;;;19.30;9.45;;;;;;;14.67;100.00;100806.19;4954389;29;20027;-64
2022/09/10 05:04:10;;;;;;;17.45;8.77;;;;;;;14.68;100.00;100805.13;4954187;29;20065;-65
2022/09/10 05:06:35;;;;;;;16.05;8.75;;;;;;;14.71;100.00;100811.09;4954175;28;20042;-64
2022/09/10 05:09:00;;;;;;;19.08;8.50;;;;;;;14.71;100.00;100806.53;4953383;29;20031;-64
2022/09/10 05:11:26;;;;;;;15.77;9.02;;;;;;;14.72;100.00;100799.28;4953809;29;20117;-65
2022/09/10 05:13:52;;;;;;;17.45;9.52;;;;;;;14.72;100.00;100797.41;4954413;28;20070;-64
2022/09/10 05:16:17;;;;;;;16.88;9.13;;;;;;;14.73;100.00;100809.81;4954169;29;20081;-64
2022/09/10 05:18:42;;;;;;;17.48;8.80;;;;;;;14.73;100.00;100800.94;4954031;28;20051;-65
2022/09/10 05:21:09;;;;;;;17.33;9.70;;;;;;;14.74;100.00;100803.41;4953975;29;20063;-65
2022/09/10 05:23:34;;;;;;;17.90;8.63;;;;;;;14.73;100.00;100795.59;4953821;29;20093;-65
2022/09/10 05:25:59;;;;;;;17.50;8.63;;;;;;;14.74;100.00;100802.59;4953864;28;20123;-64
2022/09/10 05:28:25;;;;;;;18.77;10.07;;;;;;;14.75;100.00;100802.38;4953719;29;20117;-64
2022/09/10 05:30:50;;;;;;;18.70;10.20;;;;;;;14.76;100.00;100804.00;4953542;29;20061;-64
2022/09/10 05:33:16;;;;;;;21.63;11.20;;;;;;;14.76;100.00;100801.31;4953535;29;20635;-64
2022/09/10 05:35:41;;;;;;;19.42;9.70;;;;;;;14.77;100.00;100805.63;4953693;28;20047;-64
2022/09/10 05:38:09;;;;;;;19.60;10.43;;;;;;;14.77;100.00;100811.00;4935057;29;20793;-64
2022/09/10 05:40:35;;;;;;;20.52;10.27;;;;;;;14.80;100.00;100817.78;4935422;29;20438;-67
2022/09/10 05:43:00;;;;;;;18.67;9.88;;;;;;;14.80;100.00;100807.88;4951438;29;20027;-67
2022/09/10 05:45:26;;;;;;;21.40;9.32;;;;;;;14.82;100.00;100804.94;4953442;29;20482;-67
2022/09/10 05:47:51;;;;;;;19.40;9.45;;;;;;;14.83;100.00;100799.38;4953473;29;20758;-67
2022/09/10 05:50:18;;;;;;;20.20;10.05;;;;;;;14.84;100.00;100806.38;4953142;29;20027;-67
2022/09/10 05:52:43;;;;;;;17.40;9.90;;;;;;;14.84;100.00;100803.69;4953018;29;20039;-68
2022/09/10 05:55:10;;;;;;;18.83;10.30;;;;;;;14.86;100.00;100806.16;4953104;29;20031;-67
2022/09/10 05:57:36;;;;;;;17.60;9.88;;;;;;;14.86;100.00;100804.28;4952297;28;20126;-67
2022/09/10 06:00:05;;;;;;;16.45;10.13;;;;;;;14.87;100.00;100808.59;4934955;29;20207;-67
2022/09/10 06:02:30;;;;;;;19.75;9.88;;;;;;;14.86;100.00;100812.34;4934798;29;20043;-67
2022/09/10 06:04:55;;;;;;;17.00;9.95;;;;;;;14.87;100.00;100805.09;4934738;29;20028;-67
2022/09/10 06:07:21;;;;;;;18.85;10.45;;;;;;;14.88;100.00;100795.97;4934718;29;20032;-67
2022/09/10 06:09:46;;;;;;;17.48;9.45;;;;;;;14.87;100.00;100805.91;4934380;29;20031;-67
2022/09/10 06:12:12;;;;;;;18.67;9.65;;;;;;;14.87;100.00;100800.53;4933901;29;20052;-67
2022/09/10 06:14:37;;;;;;;25.83;10.38;;;;;;;14.90;100.00;100804.63;4934498;29;20040;-67
2022/09/10 06:17:03;;;;;;;16.67;8.90;;;;;;;14.92;100.00;100807.94;4934334;29;20114;-67
2022/09/10 06:19:29;;;;;;;20.60;9.43;;;;;;;14.93;100.00;100811.44;4934438;29;20391;-67
2022/09/10 06:21:54;;;;;;;23.65;11.32;;;;;;;14.94;100.00;100810.41;4934442;29;20035;-67
2022/09/10 06:24:19;;;;;;;19.80;9.27;;;;;;;14.95;100.00;100814.72;4934611;29;20130;-67
2022/09/10 06:26:48;;;;;;;20.75;10.77;;;;;;;14.95;100.00;100810.16;4933976;29;20078;-67
2022/09/10 06:29:14;;;;;;;17.05;9.73;;;;;;;14.99;100.00;100813.22;4933829;29;20031;-67
2022/09/10 06:31:39;;;;;;;21.13;10.68;;;;;;;15.02;100.00;100815.44;4934032;29;20419;-67
2022/09/10 06:34:05;;;;;;;19.10;11.00;;;;;;;15.04;100.00;100810.69;4934128;29;20062;-67
2022/09/10 06:36:31;;;;;;;18.42;9.70;;;;;;;15.05;100.00;100815.81;4935896;29;20062;-67
2022/09/10 06:38:56;;;;;;;19.50;10.48;;;;;;;15.08;100.00;100817.22;4952476;28;20114;-67
2022/09/10 06:41:23;;;;;;;20.30;10.30;;;;;;;15.08;100.00;100814.53;4952438;29;20231;-67
2022/09/10 06:43:49;;;;;;;18.13;10.18;;;;;;;15.06;100.00;100817.47;4952281;28;20046;-66
2022/09/10 06:46:16;;;;;;;16.52;7.63;;;;;;;15.10;100.00;100820.50;4952361;29;20035;-64
2022/09/10 06:48:42;;;;;;;17.67;10.32;;;;;;;15.10;100.00;100820.50;4952243;29;20082;-65
2022/09/10 06:51:09;;;;;;;19.92;8.80;;;;;;;15.08;100.00;100822.59;4951867;29;20035;-64
2022/09/10 06:53:35;;;;;;;16.58;9.65;;;;;;;15.09;100.00;100832.28;4952084;29;20031;-64
2022/09/10 06:56:04;;;;;;;17.70;9.13;;;;;;;15.06;100.00;100830.91;4951841;29;20497;-64
2022/09/10 06:58:31;;;;;;;15.75;8.88;;;;;;;15.04;100.00;100830.28;4952259;29;20066;-65
2022/09/10 07:00:57;;;;;;;15.93;8.63;;;;;;;15.04;100.00;100832.97;4952165;29;20140;-65
2022/09/10 07:03:22;;;;;;;17.02;9.32;;;;;;;15.05;100.00;100833.78;4951935;29;20114;-64
2022/09/10 07:05:52;;;;;;;19.02;10.25;;;;;;;15.03;100.00;100825.94;4952095;28;20031;-64
2022/09/10 07:08:19;;;;;;;19.38;10.35;;;;;;;15.02;100.00;100829.69;4951534;28;20031;-64
2022/09/10 07:10:45;;;;;;;20.52;10.77;;;;;;;15.03;100.00;100825.13;4951820;29;20039;-65
2022/09/10 07:13:11;;;;;;;21.30;10.88;;;;;;;15.03;100.00;100834.00;4933991;29;20039;-64
2022/09/10 07:15:45;;;;;;;20.20;10.35;;;;;;;15.04;100.00;100826.78;4951302;28;20086;-65
2022/09/10 07:18:15;;;;;;;18.55;9.98;;;;;;;15.04;100.00;100830.28;4951695;29;20066;-65
2022/09/10 07:20:42;;;;;;;19.92;10.77;;;;;;;15.08;100.00;100834.16;4934394;29;20475;-65
2022/09/10 07:23:09;;;;;;;19.60;12.00;;;;;;;15.11;100.00;100832.88;4951836;28;20386;-65
2022/09/10 07:25:34;;;;;;;20.83;11.13;;;;;;;15.15;100.00;100839.44;4951797;29;20482;-65
2022/09/10 07:28:00;;;;;;;20.85;11.38;;;;;;;15.23;100.00;100838.31;4951576;29;20066;-64
2022/09/10 07:30:27;;;;;;;20.20;10.23;;;;;;;15.31;100.00;100833.44;4951714;28;20038;-65
2022/09/10 07:32:53;;;;;;;22.10;11.98;;;;;;;15.34;100.00;100835.66;4951488;29;20121;-65
2022/09/10 07:35:18;;;;;;;20.83;11.13;;;;;;;15.35;100.00;100831.09;4951490;28;20500;-68
2022/09/10 07:37:44;;;;;;;20.00;11.48;;;;;;;15.34;100.00;100838.34;4951356;28;20035;-68
2022/09/10 07:40:10;;;;;;;24.25;12.07;;;;;;;15.33;100.00;100844.78;4951211;28;20394;-68
2022/09/10 07:42:36;;;;;;;21.63;12.57;;;;;;;15.32;100.00;100843.13;4951449;29;20038;-68
2022/09/10 07:45:02;;;;;;;21.00;11.10;;;;;;;15.30;100.00;100845.25;4951206;29;20113;-68
2022/09/10 07:47:28;;;;;;;21.13;12.50;;;;;;;15.28;100.00;100850.00;4951333;29;20440;-68
2022/09/10 07:49:53;;;;;;;19.15;11.25;;;;;;;15.29;100.00;100853.50;4934233;29;20038;-68
2022/09/10 07:52:18;;;;;;;19.48;10.88;;;;;;;15.27;100.00;100848.38;4951095;29;20033;-68
2022/09/10 07:54:44;;;;;;;21.25;11.05;;;;;;;15.30;100.00;100841.72;4950941;28;20174;-68
2022/09/10 07:57:09;;;;;;;19.15;10.80;;;;;;;15.31;100.00;100846.88;4950695;29;20113;-68
2022/09/10 07:59:34;;;;;;;20.48;12.45;;;;;;;15.32;100.00;100845.81;4951047;29;20075;-68
2022/09/10 08:02:00;;;;;;;21.40;13.40;;;;;;;15.30;100.00;100841.72;4950917;29;20034;-68
2022/09/10 08:04:25;;;;;;;19.10;11.95;;;;;;;15.36;100.00;100858.81;4950969;29;20166;-69
2022/09/10 08:06:51;;;;;;;21.45;11.82;;;;;;;15.36;100.00;100858.81;4933417;29;20050;-68
2022/09/10 08:09:18;;;;;;;21.58;12.70;;;;;;;15.32;100.00;100861.13;4950687;29;20043;-64
2022/09/10 08:11:44;;;;;;;19.73;11.82;;;;;;;15.33;100.00;100858.22;4950493;29;20055;-65
2022/09/10 08:14:09;;;;;;;19.83;12.73;;;;;;;15.33;100.00;100868.97;4950661;29;20394;-65
2022/09/10 08:16:35;;;;;;;20.08;12.73;;;;;;;15.33;100.00;100870.84;4950386;29;20082;-65
2022/09/10 08:19:01;;;;;;;20.30;12.20;;;;;;;15.33;100.00;100874.34;4950854;29;20035;-65
2022/09/10 08:21:29;;;;;;;19.75;12.50;;;;;;;15.33;100.00;100885.09;4940611;28;20032;-66
2022/09/10 08:23:54;;;;;;;19.85;12.63;;;;;;;15.36;100.00;100881.13;4932665;29;20043;-64
2022/09/10 08:26:22;;;;;;;20.85;12.95;;;;;;;15.38;100.00;100875.50;4932525;29;20062;-65
2022/09/10 08:28:48;;;;;;;23.77;13.73;;;;;;;15.45;100.00;100881.63;4932497;29;20024;-64
2022/09/10 08:31:15;;;;;;;21.98;15.13;;;;;;;15.50;100.00;100885.25;4950738;29;20035;-64
2022/09/10 08:33:40;;;;;;;24.23;15.25;;;;;;;15.54;100.00;100891.03;4950749;29;20050;-65
2022/09/10 08:36:09;;;;;;;22.77;14.38;;;;;;;15.56;100.00;100902.34;4950738;29;20479;-65
2022/09/10 08:38:38;;;;;;;24.45;15.77;;;;;;;15.61;100.00;100896.28;4950595;29;20035;-65
2022/09/10 08:41:17;;;;;;;24.30;14.55;;;;;;;15.62;100.00;100896.06;4950741;28;20501;-65
2022/09/10 08:44:02;;;;;;;22.08;15.05;;;;;;;15.70;100.00;100903.84;4950617;29;20926;-62
2022/09/10 08:46:32;;;;;;;23.25;14.80;;;;;;;15.80;100.00;100900.59;4950564;29;20063;-64
2022/09/10 08:49:16;;;;;;;25.30;17.02;;;;;;;15.92;100.00;100900.59;4950654;29;20035;-64
2022/09/10 08:52:05;;;;;;;24.83;18.88;;;;;;;16.05;100.00;100904.97;4950543;29;20031;-64
2022/09/10 08:54:46;;;;;;;22.85;15.15;;;;;;;16.18;100.00;100908.25;4938870;28;20126;-64
2022/09/10 08:57:23;;;;;;;23.67;16.25;;;;;;;16.21;100.00;100909.66;4937531;28;20042;-65
2022/09/10 08:59:51;;;;;;;25.77;16.00;;;;;;;16.23;100.00;100922.91;4933537;28;20574;-66
2022/09/10 09:02:30;;;;;;;24.45;16.40;;;;;;;16.25;100.00;100912.72;4931968;29;20598;-64
2022/09/10 09:05:08;;;;;;;23.80;15.95;;;;;;;16.31;100.00;100919.84;4950307;28;20483;-64
2022/09/10 09:07:38;;;;;;;24.10;15.93;;;;;;;16.32;100.00;100924.19;4936945;29;20118;-64
2022/09/10 09:10:33;;;;;;;22.58;15.70;;;;;;;16.31;100.00;100917.16;4932363;29;20036;-64
2022/09/10 09:13:31;;;;;;;22.98;14.52;;;;;;;16.33;100.00;100918.56;4939511;29;20051;-64
2022/09/10 09:16:33;;;;;;;22.75;13.57;;;;;;;16.35;100.00;100924.53;4950320;29;20031;-65
2022/09/10 09:19:17;;;;;;;20.02;13.07;;;;;;;16.28;100.00;100925.72;4950142;29;20059;-65
2022/09/10 09:21:51;;;;;;;20.15;12.20;;;;;;;16.21;100.00;100933.88;4950387;28;20437;-65
2022/09/10 09:24:45;;;;;;;18.52;12.80;;;;;;;16.16;100.00;100928.38;4950484;29;20032;-65
2022/09/10 09:27:15;;;;;;;17.77;11.60;;;;;;;16.12;100.00;100922.66;4941442;28;20039;-63
2022/09/10 09:30:03;;;;;;;20.23;12.25;;;;;;;16.10;100.00;100927.44;4950220;29;20042;-65
2022/09/10 09:32:39;;;;;;;19.63;12.57;;;;;;;16.15;100.00;100929.44;4952699;28;20375;-67
2022/09/10 09:35:22;;;;;;;17.15;10.90;;;;;;;16.20;100.00;100929.56;4953583;29;20034;-67
2022/09/10 09:37:56;;;;;;;18.80;11.77;;;;;;;16.26;100.00;100931.31;4953914;28;20478;-67
2022/09/10 09:40:36;;;;;;;16.98;10.27;;;;;;;16.25;100.00;100927.00;4953680;28;20073;-67
2022/09/10 09:43:34;;;;;;;16.90;11.18;;;;;;;16.27;100.00;100932.13;4953576;29;20062;-68
2022/09/10 09:46:00;;;;;;;20.77;11.88;;;;;;;16.25;100.00;100931.56;4953504;29;20482;-71
2022/09/10 09:48:36;;;;;;;17.67;11.68;;;;;;;16.32;100.00;100933.09;4953361;29;20078;-68
2022/09/10 09:51:03;;;;;;;20.55;12.13;;;;;;;16.48;100.00;100934.28;4953365;29;20565;-67
2022/09/10 09:53:29;;;;;;;21.95;13.65;;;;;;;16.57;100.00;100938.25;4953280;29;20058;-67
2022/09/10 09:55:58;;;;;;;19.50;11.93;;;;;;;16.66;100.00;100936.00;4952926;29;20043;-67
2022/09/10 09:58:23;;;;;;;21.00;13.73;;;;;;;16.70;100.00;100929.09;4953004;29;20027;-68
2022/09/10 10:01:13;;;;;;;19.73;12.55;;;;;;;16.74;100.00;100932.13;4953215;29;20502;-67
2022/09/10 10:03:41;;;;;;;21.92;13.60;;;;;;;16.76;100.00;100930.03;4953111;28;20103;-68
2022/09/10 10:06:09;;;;;;;21.17;13.55;;;;;;;16.84;100.00;100929.69;4953100;28;20023;-67
2022/09/10 10:08:59;;;;;;;21.77;14.70;;;;;;;16.95;100.00;100928.88;4953020;28;20050;-67
2022/09/10 10:11:44;;;;;;;23.73;14.23;;;;;;;17.08;100.00;100934.00;4934699;29;20051;-68
2022/09/10 10:14:19;;;;;;;23.05;13.45;;;;;;;17.20;100.00;100933.16;4934646;29;20027;-68
2022/09/10 10:16:47;;;;;;;23.33;14.32;;;;;;;17.27;100.00;100945.44;4934593;29;20027;-68
2022/09/10 10:19:37;;;;;;;20.90;13.05;;;;;;;17.42;100.00;100952.19;4934122;29;20041;-68
2022/09/10 10:22:17;;;;;;;19.48;12.52;;;;;;;17.44;100.00;100944.69;4952756;29;20028;-67
2022/09/10 10:24:45;;;;;;;19.80;13.13;;;;;;;17.41;100.00;100953.25;4952767;29;20035;-66
2022/09/10 10:27:44;;;;;;;20.50;11.50;;;;;;;17.36;100.00;100939.66;4952647;29;20075;-66
2022/09/10 10:30:21;;;;;;;18.75;11.27;;;;;;;17.40;100.00;100936.25;4952469;29;20043;-66
2022/09/10 10:32:57;;;;;;;16.50;10.88;;;;;;;17.45;100.00;100936.38;4934281;29;20027;-66
2022/09/10 10:36:13;;;;;;;17.38;10.10;;;;;;;17.49;100.00;100934.81;4952563;28;20126;-66
2022/09/10 10:38:51;;;;;;;15.82;10.05;;;;;;;17.47;100.00;100947.72;4919446;29;20058;-66
2022/09/10 10:41:28;;;;;;;16.40;10.68;;;;;;;17.46;100.00;100945.25;4952577;29;20039;-66
2022/09/10 10:44:03;;;;;;;15.18;9.70;;;;;;;17.40;100.00;100936.25;4951816;28;20570;-66
2022/09/10 10:46:41;;;;;;;14.60;9.93;;;;;;;17.34;100.00;100934.50;4952302;29;20042;-66
2022/09/10 10:49:16;;;;;;;14.73;8.45;;;;;;;17.27;100.00;100945.44;4952431;29;20098;-66
2022/09/10 10:51:55;;;;;;;13.70;8.23;;;;;;;17.19;100.00;100945.00;4952624;29;20359;-63
2022/09/10 10:55:01;;;;;;;14.40;8.93;;;;;;;17.10;100.00;100955.31;4952385;29;20027;-63
2022/09/10 10:57:54;;;;;;;15.98;8.95;;;;;;;16.98;100.00;100941.06;4952391;28;20102;-64
2022/09/10 11:00:19;;;;;;;15.00;8.18;;;;;;;16.92;100.00;100950.88;4951865;29;20047;-63
2022/09/10 11:03:03;;;;;;;13.98;8.27;;;;;;;16.88;100.00;100957.00;4951557;29;20039;-63
2022/09/10 11:05:36;;;;;;;15.32;9.00;;;;;;;16.83;100.00;100957.72;4952022;29;20078;-63
2022/09/10 11:08:13;;;;;;;13.32;7.57;;;;;;;16.79;100.00;100956.53;4951892;28;20470;-63
2022/09/10 11:10:49;;;;;;;13.07;6.35;;;;;;;16.78;100.00;100977.25;4951967;28;20426;-64
2022/09/10 11:13:30;;;;;;;16.45;6.90;;;;;;;16.74;100.00;100961.75;4951994;29;20513;-63
2022/09/10 11:16:08;;;;;;;14.30;8.27;;;;;;;16.73;100.00;100971.72;4951824;29;20035;-63
2022/09/10 11:18:55;;;;;;;13.00;7.10;;;;;;;16.73;100.00;100976.28;4951844;29;20299;-63
2022/09/10 11:21:23;;;;;;;9.52;5.22;;;;;;;16.72;100.00;100977.38;4951354;28;20027;-63